createdAt,value
2022-09-12T00:02:26.467Z,69.00
2022-09-12T00:05:13.408Z,67.85
2022-09-12T00:08:00.950Z,66.82
2022-09-12T00:10:47.875Z,67.40
2022-09-12T00:13:38.384Z,64.68
2022-09-12T00:16:30.858Z,65.00
2022-09-12T00:19:18.821Z,63.75
2022-09-12T00:22:05.746Z,63.83
2022-09-12T00:24:52.641Z,64.80
2022-09-12T00:27:39.564Z,65.82
2022-09-12T00:30:26.494Z,64.82
2022-09-12T00:33:15.084Z,64.28
2022-09-12T00:36:10.449Z,66.97
2022-09-12T00:38:57.507Z,66.15
2022-09-12T00:41:44.902Z,65.63
2022-09-12T00:44:31.761Z,66.55
2022-09-12T00:47:37.914Z,69.20
2022-09-12T00:50:25.854Z,64.85
2022-09-12T00:53:13.044Z,66.20
2022-09-12T00:56:00.392Z,68.22
2022-09-12T00:59:00.264Z,67.22
2022-09-12T01:01:50.665Z,65.47
2022-09-12T01:04:40.651Z,64.85
2022-09-12T01:07:28.299Z,64.32
2022-09-12T01:10:15.913Z,63.67
2022-09-12T01:13:05.458Z,63.15
2022-09-12T01:15:52.788Z,62.95
2022-09-12T01:18:49.029Z,58.45
2022-09-12T01:22:06.079Z,60.97
2022-09-12T01:25:21.014Z,60.83
2022-09-12T01:28:07.887Z,61.13
2022-09-12T01:31:20.794Z,61.10
2022-09-12T01:34:18.051Z,59.85
2022-09-12T01:37:15.549Z,59.47
2022-09-12T01:40:21.717Z,61.28
2022-09-12T01:43:31.929Z,61.22
2022-09-12T01:46:29.670Z,59.20
2022-09-12T01:49:28.855Z,59.97
2022-09-12T01:52:25.829Z,59.83
2022-09-12T01:55:21.081Z,59.78
2022-09-12T01:58:38.108Z,60.28
2022-09-12T02:01:29.763Z,60.42
2022-09-12T02:04:24.104Z,59.83
2022-09-12T02:07:20.481Z,59.20
2022-09-12T02:10:18.101Z,59.53
2022-09-12T02:13:15.854Z,59.42
2022-09-12T02:16:22.590Z,62.28
2022-09-12T02:19:15.863Z,60.97
2022-09-12T02:22:05.184Z,59.67
2022-09-12T02:24:56.970Z,61.65
2022-09-12T02:27:55.309Z,62.75
2022-09-12T02:30:52.325Z,59.28
2022-09-12T02:33:48.957Z,59.38
2022-09-12T02:36:57.760Z,59.92
2022-09-12T02:39:45.604Z,57.38
2022-09-12T02:42:32.969Z,57.42
2022-09-12T02:45:20.433Z,57.75
2022-09-12T02:48:13.706Z,58.35
2022-09-12T02:51:02.533Z,58.50
2022-09-12T02:53:49.670Z,57.85
2022-09-12T02:56:41.137Z,59.33
2022-09-12T02:59:28.501Z,57.67
2022-09-12T03:02:32.364Z,57.45
2022-09-12T03:05:27.126Z,56.65
2022-09-12T03:08:28.872Z,57.22
2022-09-12T03:11:37.243Z,57.75
2022-09-12T03:14:35.702Z,56.55
2022-09-12T03:17:40.043Z,58.00
2022-09-12T03:20:52.217Z,56.50
2022-09-12T03:23:51.561Z,58.88
2022-09-12T03:26:47.641Z,55.83
2022-09-12T03:29:36.981Z,60.35
2022-09-12T03:32:43.896Z,58.47
2022-09-12T03:35:30.934Z,58.15
2022-09-12T03:38:18.637Z,57.40
2022-09-12T03:41:05.732Z,56.28
2022-09-12T03:43:52.776Z,53.72
2022-09-12T03:46:39.694Z,56.80
2022-09-12T03:49:26.653Z,55.40
2022-09-12T03:52:13.612Z,55.90
2022-09-12T03:55:00.645Z,55.67
2022-09-12T03:57:47.543Z,56.30
2022-09-12T04:00:34.426Z,54.38
2022-09-12T04:03:21.307Z,54.42
2022-09-12T04:06:11.036Z,55.83
2022-09-12T04:08:58.632Z,54.38
2022-09-12T04:11:45.534Z,55.38
2022-09-12T04:14:32.548Z,54.97
2022-09-12T04:17:19.433Z,55.92
2022-09-12T04:20:07.000Z,55.67
2022-09-12T04:22:53.955Z,55.70
2022-09-12T04:25:40.812Z,57.35
2022-09-12T04:28:29.148Z,55.13
2022-09-12T04:31:20.782Z,55.35
2022-09-12T04:34:07.829Z,55.00
2022-09-12T04:36:54.720Z,55.80
2022-09-12T04:39:41.676Z,55.22
2022-09-12T04:42:29.925Z,54.65
2022-09-12T04:45:16.940Z,56.40
2022-09-12T04:48:04.001Z,56.40
2022-09-12T04:50:51.029Z,55.67
2022-09-12T04:53:38.627Z,55.03
2022-09-12T04:56:26.617Z,56.60
2022-09-12T04:59:15.776Z,57.63
2022-09-12T05:02:02.770Z,55.92
2022-09-12T05:04:49.715Z,55.50
2022-09-12T05:07:36.758Z,57.40
2022-09-12T05:10:23.951Z,53.38
2022-09-12T05:13:10.847Z,55.58
2022-09-12T05:15:59.728Z,55.50
2022-09-12T05:18:47.326Z,56.03
2022-09-12T05:21:34.511Z,54.55
2022-09-12T05:24:21.705Z,56.83
2022-09-12T05:27:08.766Z,56.53
2022-09-12T05:29:55.748Z,58.58
2022-09-12T05:32:42.638Z,59.83
2022-09-12T05:35:29.546Z,56.00
2022-09-12T05:38:16.623Z,57.58
2022-09-12T05:41:17.071Z,55.10
2022-09-12T05:44:06.817Z,57.42
2022-09-12T05:46:53.849Z,59.00
2022-09-12T05:49:40.935Z,59.28
2022-09-12T05:52:27.924Z,61.50
2022-09-12T05:55:14.948Z,59.17
2022-09-12T05:58:01.974Z,60.08
2022-09-12T06:00:50.197Z,62.58
2022-09-12T06:03:41.333Z,63.67
2022-09-12T06:06:30.247Z,65.50
2022-09-12T06:09:17.755Z,66.90
2022-09-12T06:12:05.081Z,70.18
2022-09-12T06:14:52.434Z,73.07
2022-09-12T06:17:39.688Z,76.60
2022-09-12T06:20:26.640Z,79.00
2022-09-12T06:23:13.631Z,79.75
2022-09-12T06:26:00.871Z,86.05
2022-09-12T06:28:48.060Z,87.50
2022-09-12T06:31:37.219Z,91.93
2022-09-12T06:34:24.494Z,93.03
2022-09-12T06:37:11.490Z,92.00
2022-09-12T06:39:58.891Z,97.13
2022-09-12T06:42:45.840Z,92.30
2022-09-12T06:45:32.717Z,90.82
2022-09-12T06:48:20.155Z,89.70
2022-09-12T06:51:11.799Z,85.35
2022-09-12T06:53:59.035Z,84.53
2022-09-12T06:56:46.108Z,86.32
2022-09-12T06:59:32.996Z,91.68
2022-09-12T07:02:20.188Z,97.25
2022-09-12T07:05:07.794Z,106.93
2022-09-12T07:07:54.936Z,108.80
2022-09-12T07:10:41.988Z,114.80
2022-09-12T07:13:28.932Z,119.88
2022-09-12T07:16:19.685Z,124.43
2022-09-12T07:19:08.444Z,120.55
2022-09-12T07:21:58.701Z,124.72
2022-09-12T07:24:46.057Z,139.38
2022-09-12T07:27:33.265Z,138.45
2022-09-12T07:30:20.256Z,145.18
2022-09-12T07:33:07.188Z,146.77
2022-09-12T07:35:54.737Z,149.85
2022-09-12T07:38:42.607Z,165.52
2022-09-12T07:41:32.856Z,173.20
2022-09-12T07:44:19.774Z,169.13
2022-09-12T07:47:06.812Z,158.35
2022-09-12T07:49:53.841Z,166.77
2022-09-12T07:52:40.780Z,176.90
2022-09-12T07:55:27.639Z,187.45
2022-09-12T07:58:14.524Z,204.18
2022-09-12T08:01:05.902Z,204.32
2022-09-12T08:04:00.255Z,217.05
2022-09-12T08:06:47.177Z,219.38
2022-09-12T08:09:34.177Z,214.70
2022-09-12T08:12:21.232Z,212.55
2022-09-12T08:15:08.701Z,208.10
2022-09-12T08:17:55.716Z,214.15
2022-09-12T08:20:43.342Z,205.95
2022-09-12T08:23:30.649Z,202.90
2022-09-12T08:26:17.703Z,203.77
2022-09-12T08:29:05.081Z,203.57
2022-09-12T08:31:57.006Z,200.93
2022-09-12T08:34:44.199Z,203.07
2022-09-12T08:37:31.862Z,192.27
2022-09-12T08:40:19.065Z,190.30
2022-09-12T08:43:24.825Z,183.82
2022-09-12T08:46:22.675Z,170.48
2022-09-12T08:49:14.129Z,153.10
2022-09-12T08:52:21.491Z,142.48
2022-09-12T08:55:26.584Z,134.55
2022-09-12T08:58:20.288Z,133.32
2022-09-12T09:01:35.691Z,127.22
2022-09-12T09:04:34.474Z,123.15
2022-09-12T09:07:43.150Z,123.75
2022-09-12T09:10:35.166Z,123.43
2022-09-12T09:13:52.589Z,124.70
2022-09-12T09:16:45.180Z,124.72
2022-09-12T09:19:40.860Z,132.90
2022-09-12T09:22:45.794Z,154.95
2022-09-12T09:25:58.214Z,183.13
2022-09-12T09:28:52.687Z,187.73
2022-09-12T09:34:31.622Z,181.05
2022-09-12T09:37:34.104Z,185.02
2022-09-12T09:40:46.462Z,190.55
2022-09-12T09:43:33.604Z,198.32
2022-09-12T09:46:20.613Z,189.25
2022-09-12T09:49:12.047Z,187.27
2022-09-12T09:52:01.012Z,194.23
2022-09-12T09:54:55.210Z,202.70
2022-09-12T09:57:44.952Z,205.55
2022-09-12T10:00:34.712Z,214.90
2022-09-12T10:03:54.116Z,219.13
2022-09-12T10:06:41.795Z,215.93
2022-09-12T10:09:36.381Z,212.70
2022-09-12T10:12:29.460Z,211.75
2022-09-12T10:15:26.596Z,208.57
2022-09-12T10:18:34.543Z,210.10
2022-09-12T10:21:43.583Z,217.70
2022-09-12T10:24:48.739Z,231.15
2022-09-12T10:27:36.133Z,221.68
2022-09-12T10:30:28.297Z,233.32
2022-09-12T10:33:15.653Z,226.75
2022-09-12T10:36:03.728Z,226.95
2022-09-12T10:38:53.999Z,226.20
2022-09-12T10:41:41.694Z,225.52
2022-09-12T10:44:34.503Z,217.20
2022-09-12T10:47:24.351Z,215.82
2022-09-12T10:50:43.538Z,206.93
2022-09-12T10:53:48.816Z,204.75
2022-09-12T10:57:00.114Z,210.32
2022-09-12T11:00:07.027Z,210.30
2022-09-12T11:03:15.384Z,204.38
2022-09-12T11:06:02.444Z,210.77
2022-09-12T11:09:15.533Z,228.55
2022-09-12T11:12:17.373Z,232.50
2022-09-12T11:15:11.086Z,227.02
2022-09-12T11:18:51.867Z,221.98
2022-09-12T11:22:11.744Z,222.18
2022-09-12T11:25:28.007Z,237.55
2022-09-12T11:28:42.095Z,247.73
2022-09-12T11:32:10.832Z,253.25
2022-09-12T11:35:24.544Z,254.50
2022-09-12T11:38:19.075Z,238.40
2022-09-12T11:41:11.650Z,237.27
2022-09-12T11:44:06.960Z,236.07
2022-09-12T11:46:54.108Z,249.50
2022-09-12T11:49:47.219Z,248.70
2022-09-12T11:52:38.927Z,265.48
2022-09-12T11:55:32.717Z,267.20
2022-09-12T11:58:25.506Z,260.27
2022-09-12T12:01:21.090Z,255.55
2022-09-12T12:04:17.967Z,252.07
2022-09-12T12:07:08.508Z,250.95
2022-09-12T12:09:57.017Z,262.88
2022-09-12T12:12:44.127Z,277.48
2022-09-12T12:15:31.904Z,272.05
2022-09-12T12:18:27.267Z,259.10
2022-09-12T12:21:32.150Z,254.45
2022-09-12T12:24:28.996Z,256.58
2022-09-12T12:27:50.384Z,251.98
2022-09-12T12:30:40.974Z,250.13
2022-09-12T12:33:27.857Z,244.27
2022-09-12T12:36:40.363Z,236.73
2022-09-12T12:39:33.300Z,229.20
2022-09-12T12:42:35.533Z,243.60
2022-09-12T12:45:25.422Z,234.25
2022-09-12T12:48:16.922Z,227.80
2022-09-12T12:51:51.600Z,232.95
2022-09-12T12:54:41.282Z,245.70
2022-09-12T12:57:56.369Z,247.75
2022-09-12T13:00:46.201Z,272.48
2022-09-12T13:03:34.494Z,275.73
2022-09-12T13:06:41.014Z,268.95
2022-09-12T13:09:40.449Z,258.52
2022-09-12T13:12:35.695Z,246.85
2022-09-12T13:15:51.332Z,241.07
2022-09-12T13:18:49.617Z,233.05
2022-09-12T13:21:36.526Z,231.75
2022-09-12T13:24:24.172Z,232.20
2022-09-12T13:27:18.479Z,226.95
2022-09-12T13:33:27.275Z,226.40
2022-09-12T13:36:55.903Z,242.88
2022-09-12T13:39:49.870Z,245.57
2022-09-12T13:42:37.227Z,244.60
2022-09-12T13:45:27.581Z,235.73
2022-09-12T13:48:22.052Z,239.68
2022-09-12T13:51:22.925Z,245.30
2022-09-12T13:54:22.536Z,258.52
2022-09-12T13:57:27.460Z,262.75
2022-09-12T14:00:19.511Z,253.13
2022-09-12T14:03:54.753Z,262.85
2022-09-12T14:06:51.728Z,264.23
2022-09-12T14:09:43.976Z,255.43
2022-09-12T14:12:40.748Z,252.95
2022-09-12T14:15:31.449Z,250.32
2022-09-12T14:18:36.302Z,245.02
2022-09-12T14:21:30.464Z,254.20
2022-09-12T14:24:17.514Z,250.68
2022-09-12T14:27:04.967Z,244.95
2022-09-12T14:30:32.117Z,239.60
2022-09-12T14:33:20.926Z,233.07
2022-09-12T14:36:18.340Z,238.85
2022-09-12T14:39:15.181Z,237.80
2022-09-12T14:42:18.806Z,247.90
2022-09-12T14:45:17.207Z,266.70
2022-09-12T14:48:04.417Z,271.33
2022-09-12T14:50:53.358Z,274.35
2022-09-12T14:53:48.959Z,266.35
2022-09-12T14:56:57.543Z,272.15
2022-09-12T14:59:44.484Z,272.77
2022-09-12T15:02:31.818Z,262.02
2022-09-12T15:05:21.976Z,249.30
2022-09-12T15:08:15.969Z,240.57
2022-09-12T15:11:06.542Z,240.38
2022-09-12T15:13:53.653Z,233.18
2022-09-12T15:16:41.175Z,230.82
2022-09-12T15:19:28.982Z,221.77
2022-09-12T15:22:25.395Z,220.52
2022-09-12T15:25:13.672Z,217.30
2022-09-12T15:28:00.849Z,220.90
2022-09-12T15:30:50.547Z,214.52
2022-09-12T15:33:37.718Z,222.13
2022-09-12T15:36:25.647Z,221.55
2022-09-12T15:39:13.350Z,214.60
2022-09-12T15:42:00.356Z,209.27
2022-09-12T15:44:47.323Z,207.93
2022-09-12T15:47:34.378Z,208.27
2022-09-12T15:50:21.459Z,208.52
2022-09-12T15:53:15.364Z,209.13
2022-09-12T15:56:02.612Z,203.90
2022-09-12T15:58:58.830Z,195.63
2022-09-12T16:01:47.214Z,193.70
2022-09-12T16:04:34.565Z,190.40
2022-09-12T16:07:21.722Z,184.48
2022-09-12T16:10:13.719Z,183.13
2022-09-12T16:13:00.866Z,175.23
2022-09-12T16:15:48.198Z,168.38
2022-09-12T16:18:35.206Z,166.40
2022-09-12T16:21:22.145Z,162.85
2022-09-12T16:24:09.112Z,158.85
2022-09-12T16:27:00.900Z,158.90
2022-09-12T16:29:48.331Z,156.93
2022-09-12T16:32:35.759Z,154.77
2022-09-12T16:35:22.710Z,155.20
2022-09-12T16:38:09.929Z,154.88
2022-09-12T16:41:04.601Z,156.88
2022-09-12T16:43:52.132Z,150.93
2022-09-12T16:46:39.131Z,149.32
2022-09-12T16:49:26.075Z,146.02
2022-09-12T16:52:16.608Z,145.52
2022-09-12T16:55:03.764Z,144.00
2022-09-12T16:57:50.950Z,143.82
2022-09-12T17:00:38.255Z,144.77
2022-09-12T17:03:25.181Z,143.45
2022-09-12T17:06:14.469Z,140.57
2022-09-12T17:09:03.759Z,141.25
2022-09-12T17:11:52.670Z,140.80
2022-09-12T17:14:40.085Z,140.27
2022-09-12T17:17:27.069Z,132.90
2022-09-12T17:20:14.033Z,135.60
2022-09-12T17:23:01.067Z,133.70
2022-09-12T17:25:49.683Z,129.55
2022-09-12T17:28:37.633Z,127.07
2022-09-12T17:31:24.679Z,123.18
2022-09-12T17:34:14.639Z,122.18
2022-09-12T17:37:01.682Z,120.50
2022-09-12T17:39:49.103Z,120.38
2022-09-12T17:42:36.260Z,117.47
2022-09-12T17:45:23.387Z,117.18
2022-09-12T17:48:11.433Z,113.82
2022-09-12T17:50:59.344Z,115.00
2022-09-12T17:53:46.315Z,112.65
2022-09-12T17:56:35.347Z,111.82
2022-09-12T17:59:24.794Z,110.20
2022-09-12T18:02:13.245Z,104.43
2022-09-12T18:05:00.386Z,102.15
2022-09-12T18:07:47.302Z,102.95
2022-09-12T18:10:34.164Z,102.57
2022-09-12T18:13:21.246Z,101.38
2022-09-12T18:16:11.354Z,99.78
2022-09-12T18:19:01.459Z,102.38
2022-09-12T18:21:48.406Z,105.05
2022-09-12T18:24:36.081Z,106.45
2022-09-12T18:27:23.137Z,106.65
2022-09-12T18:30:21.141Z,109.40
2022-09-12T18:33:08.777Z,108.05
2022-09-12T18:35:55.848Z,111.13
2022-09-12T18:38:43.003Z,110.88
2022-09-12T18:41:30.656Z,108.07
2022-09-12T18:44:17.599Z,108.05
2022-09-12T18:47:04.760Z,104.85
2022-09-12T18:49:51.734Z,104.55
2022-09-12T18:52:38.771Z,103.97
2022-09-12T18:55:25.844Z,101.25
2022-09-12T18:58:12.778Z,98.72
2022-09-12T19:00:59.965Z,97.40
2022-09-12T19:03:47.451Z,97.15
2022-09-12T19:06:40.364Z,94.72
2022-09-12T19:09:27.352Z,93.90
2022-09-12T19:12:14.341Z,92.68
2022-09-12T19:15:01.311Z,92.55
2022-09-12T19:17:48.256Z,85.10
2022-09-12T19:20:37.355Z,90.60
2022-09-12T19:23:24.355Z,89.70
2022-09-12T19:26:13.902Z,89.47
2022-09-12T19:29:02.970Z,87.95
2022-09-12T19:31:49.998Z,87.85
2022-09-12T19:34:37.007Z,88.70
2022-09-12T19:37:24.220Z,88.18
2022-09-12T19:40:11.206Z,89.55
2022-09-12T19:42:58.143Z,88.35
2022-09-12T19:45:48.369Z,87.18
2022-09-12T19:48:35.707Z,87.72
2022-09-12T19:51:24.179Z,84.20
2022-09-12T19:54:11.261Z,85.55
2022-09-12T19:56:58.433Z,84.43
2022-09-12T19:59:46.187Z,83.05
2022-09-12T20:02:33.253Z,82.00
2022-09-12T20:05:20.969Z,81.85
2022-09-12T20:08:08.001Z,81.53
2022-09-12T20:10:57.195Z,83.00
2022-09-12T20:13:45.396Z,81.70
2022-09-12T20:16:33.432Z,82.80
2022-09-12T20:19:20.620Z,81.03
2022-09-12T20:22:07.558Z,80.97
2022-09-12T20:24:54.426Z,80.28
2022-09-12T20:27:41.306Z,84.05
2022-09-12T20:30:28.176Z,85.43
2022-09-12T20:33:15.073Z,85.15
2022-09-12T20:36:13.969Z,87.22
2022-09-12T20:39:02.574Z,82.32
2022-09-12T20:41:49.929Z,79.15
2022-09-12T20:44:36.890Z,80.32
2022-09-12T20:47:23.855Z,78.80
2022-09-12T20:50:12.326Z,78.80
2022-09-12T20:53:01.313Z,79.43
2022-09-12T20:55:54.259Z,82.03
2022-09-12T20:58:44.068Z,80.00
2022-09-12T21:01:32.348Z,77.80
2022-09-12T21:04:19.468Z,80.25
2022-09-12T21:07:06.570Z,79.90
2022-09-12T21:09:54.311Z,79.35
2022-09-12T21:12:41.222Z,79.70
2022-09-12T21:15:28.403Z,79.38
2022-09-12T21:18:15.535Z,78.30
2022-09-12T21:21:03.252Z,81.60
2022-09-12T21:23:55.308Z,82.15
2022-09-12T21:26:42.260Z,80.28
2022-09-12T21:29:29.111Z,81.65
2022-09-12T21:32:16.206Z,86.22
2022-09-12T21:35:05.238Z,86.30
2022-09-12T21:37:53.183Z,83.45
2022-09-12T21:40:40.182Z,80.80
2022-09-12T21:43:27.103Z,80.90
2022-09-12T21:46:14.111Z,78.13
2022-09-12T21:49:01.089Z,76.22
2022-09-12T21:51:48.066Z,74.88
2022-09-12T21:54:37.767Z,74.90
2022-09-12T21:57:24.744Z,73.85
2022-09-12T22:00:15.673Z,75.47
2022-09-12T22:03:04.954Z,73.25
2022-09-12T22:05:57.302Z,78.22
2022-09-12T22:08:44.252Z,78.43
2022-09-12T22:11:31.419Z,78.55
2022-09-12T22:14:18.405Z,79.85
2022-09-12T22:17:06.061Z,81.63
2022-09-12T22:19:52.912Z,81.60
2022-09-12T22:22:58.517Z,81.05
2022-09-12T22:25:45.606Z,82.07
2022-09-12T22:28:32.801Z,82.00
2022-09-12T22:31:20.026Z,81.60
2022-09-12T22:34:07.396Z,77.70
2022-09-12T22:36:54.320Z,78.50
2022-09-12T22:39:41.313Z,78.95
2022-09-12T22:42:31.220Z,77.60
2022-09-12T22:45:19.176Z,78.25
2022-09-12T22:48:09.031Z,78.18
2022-09-12T22:50:56.409Z,77.78
2022-09-12T22:53:43.422Z,77.78
2022-09-12T22:56:30.280Z,77.97
2022-09-12T22:59:17.362Z,78.13
2022-09-12T23:02:05.210Z,78.82
2022-09-12T23:04:52.454Z,78.20
2022-09-12T23:07:40.112Z,78.38
2022-09-12T23:10:27.139Z,76.85
2022-09-12T23:13:14.105Z,75.40
2022-09-12T23:16:03.542Z,78.47
2022-09-12T23:18:50.976Z,74.70
2022-09-12T23:21:37.849Z,74.78
2022-09-12T23:24:24.788Z,73.90
2022-09-12T23:27:11.715Z,74.72
2022-09-12T23:29:58.580Z,73.38
2022-09-12T23:32:45.463Z,71.72
2022-09-12T23:35:32.325Z,75.95
2022-09-12T23:38:19.221Z,75.65
2022-09-12T23:41:06.442Z,78.75
2022-09-12T23:43:53.791Z,79.00
2022-09-12T23:46:40.682Z,78.13
2022-09-12T23:49:27.573Z,76.57
2022-09-12T23:52:14.489Z,77.30
2022-09-12T23:55:01.404Z,76.47
2022-09-12T23:57:48.381Z,77.85
